createdAt,value
2018-06-24T00:00:48.957Z,0.00
2018-06-24T00:01:48.946Z,0.00
2018-06-24T00:02:48.936Z,4.00
2018-06-24T00:03:48.925Z,0.00
2018-06-24T00:04:48.914Z,0.00
2018-06-24T00:05:48.928Z,0.00
2018-06-24T00:06:48.892Z,0.00
2018-06-24T00:07:48.881Z,0.00
2018-06-24T00:08:48.871Z,0.00
2018-06-24T00:09:48.861Z,0.00
2018-06-24T00:10:48.874Z,0.00
2018-06-24T00:11:48.840Z,4.00
2018-06-24T00:12:48.828Z,0.00
2018-06-24T00:13:48.821Z,0.00
2018-06-24T00:14:48.812Z,0.00
2018-06-24T00:15:48.824Z,4.00
2018-06-24T00:16:48.787Z,4.00
2018-06-24T00:17:48.776Z,0.00
2018-06-24T00:18:48.771Z,0.00
2018-06-24T00:19:48.758Z,0.00
2018-06-24T00:20:48.746Z,0.00
2018-06-24T00:21:48.756Z,0.00
2018-06-24T00:22:48.723Z,0.00
2018-06-24T00:23:48.712Z,0.00
2018-06-24T00:24:48.704Z,4.00
2018-06-24T00:25:48.691Z,4.00
2018-06-24T00:26:48.704Z,0.00
2018-06-24T00:27:48.669Z,0.00
2018-06-24T00:28:48.659Z,0.00
2018-06-24T00:29:48.649Z,0.00
2018-06-24T00:30:48.642Z,0.00
2018-06-24T00:31:48.651Z,0.00
2018-06-24T00:32:48.619Z,0.00
2018-06-24T00:33:48.608Z,0.00
2018-06-24T00:34:48.596Z,0.00
2018-06-24T00:35:48.588Z,0.00
2018-06-24T00:36:48.608Z,0.00
2018-06-24T00:37:48.564Z,0.00
2018-06-24T00:38:48.554Z,0.00
2018-06-24T00:39:48.543Z,0.00
2018-06-24T00:40:48.533Z,0.00
2018-06-24T00:41:48.521Z,0.00
2018-06-24T00:42:48.534Z,0.00
2018-06-24T00:43:48.500Z,0.00
2018-06-24T00:44:48.491Z,0.00
2018-06-24T00:45:48.478Z,0.00
2018-06-24T00:46:48.469Z,0.00
2018-06-24T00:47:48.492Z,0.00
2018-06-24T00:48:48.449Z,0.00
2018-06-24T00:49:48.436Z,0.00
2018-06-24T00:50:48.425Z,0.00
2018-06-24T00:51:48.415Z,0.00
2018-06-24T00:52:48.404Z,0.00
2018-06-24T00:53:48.419Z,0.00
2018-06-24T00:54:48.383Z,0.00
2018-06-24T00:55:48.373Z,0.00
2018-06-24T00:56:48.362Z,0.00
2018-06-24T00:57:48.353Z,0.00
2018-06-24T00:58:48.364Z,0.00
2018-06-24T00:59:48.330Z,0.00
2018-06-24T01:00:48.319Z,0.00
2018-06-24T01:01:48.309Z,0.00
2018-06-24T01:02:48.297Z,0.00
2018-06-24T01:03:48.312Z,0.00
2018-06-24T01:04:48.276Z,0.00
2018-06-24T01:05:48.265Z,0.00
2018-06-24T01:06:48.255Z,0.00
2018-06-24T01:07:48.244Z,0.00
2018-06-24T01:08:48.258Z,0.00
2018-06-24T01:09:48.223Z,0.00
2018-06-24T01:10:48.212Z,0.00
2018-06-24T01:11:48.202Z,0.00
2018-06-24T01:12:48.191Z,4.00
2018-06-24T01:13:48.218Z,0.00
2018-06-24T01:14:48.176Z,4.00
2018-06-24T01:15:48.159Z,0.00
2018-06-24T01:16:48.148Z,0.00
2018-06-24T01:17:48.139Z,0.00
2018-06-24T01:18:48.132Z,4.00
2018-06-24T01:19:48.139Z,0.00
2018-06-24T01:20:48.106Z,0.00
2018-06-24T01:21:48.095Z,0.00
2018-06-24T01:22:48.086Z,0.00
2018-06-24T01:23:48.074Z,0.00
2018-06-24T01:24:48.089Z,0.00
2018-06-24T01:25:48.052Z,0.00
2018-06-24T01:26:48.042Z,0.00
2018-06-24T01:27:48.034Z,0.00
2018-06-24T01:28:48.023Z,4.00
2018-06-24T01:29:48.037Z,0.00
2018-06-24T01:30:47.999Z,0.00
2018-06-24T01:31:47.989Z,4.00
2018-06-24T01:32:47.977Z,0.00
2018-06-24T01:33:47.967Z,0.00
2018-06-24T01:34:47.956Z,0.00
2018-06-24T01:35:47.969Z,0.00
2018-06-24T01:36:47.935Z,0.00
2018-06-24T01:37:47.925Z,0.00
2018-06-24T01:38:47.914Z,0.00
2018-06-24T01:39:47.904Z,4.00
2018-06-24T01:40:47.916Z,0.00
2018-06-24T01:41:47.881Z,0.00
2018-06-24T01:42:47.872Z,4.00
2018-06-24T01:43:47.861Z,0.00
2018-06-24T01:44:47.850Z,4.00
2018-06-24T01:45:47.864Z,0.00
2018-06-24T01:46:47.833Z,4.00
2018-06-24T01:47:47.819Z,0.00
2018-06-24T01:48:47.811Z,4.00
2018-06-24T01:49:47.798Z,4.00
2018-06-24T01:50:47.814Z,0.00
2018-06-24T01:51:47.776Z,4.00
2018-06-24T01:52:47.767Z,4.00
2018-06-24T01:53:47.755Z,0.00
2018-06-24T01:54:47.748Z,4.00
2018-06-24T01:55:47.734Z,4.00
2018-06-24T01:56:47.749Z,0.00
2018-06-24T01:57:47.713Z,4.00
2018-06-24T01:58:47.703Z,4.00
2018-06-24T01:59:47.691Z,4.00
2018-06-24T02:00:47.682Z,4.00
2018-06-24T02:01:47.696Z,4.00
2018-06-24T02:02:47.660Z,4.00
2018-06-24T02:03:47.649Z,4.00
2018-06-24T02:04:47.639Z,4.00
2018-06-24T02:05:47.628Z,4.00
2018-06-24T02:06:47.644Z,4.00
2018-06-24T02:07:47.608Z,4.00
2018-06-24T02:08:47.597Z,4.00
2018-06-24T02:09:47.589Z,4.00
2018-06-24T02:10:47.576Z,4.00
2018-06-24T02:11:47.564Z,4.00
2018-06-24T02:12:47.576Z,4.00
2018-06-24T02:13:47.546Z,4.00
2018-06-24T02:14:47.532Z,4.00
2018-06-24T02:15:47.522Z,4.00
2018-06-24T02:16:47.517Z,4.00
2018-06-24T02:17:47.525Z,4.00
2018-06-24T02:18:47.488Z,4.00
2018-06-24T02:19:47.478Z,4.00
2018-06-24T02:20:47.467Z,4.00
2018-06-24T02:21:47.460Z,4.00
2018-06-24T02:22:47.469Z,4.00
2018-06-24T02:23:47.435Z,4.00
2018-06-24T02:24:47.425Z,0.00
2018-06-24T02:25:47.414Z,0.00
2018-06-24T02:26:47.404Z,0.00
2018-06-24T02:27:47.432Z,0.00
2018-06-24T02:28:47.382Z,0.00
2018-06-24T02:29:47.371Z,0.00
2018-06-24T02:30:47.365Z,0.00
2018-06-24T02:31:47.350Z,0.00
2018-06-24T02:32:47.339Z,0.00
2018-06-24T02:33:47.355Z,0.00
2018-06-24T02:34:47.317Z,0.00
2018-06-24T02:35:47.309Z,0.00
2018-06-24T02:36:47.297Z,0.00
2018-06-24T02:37:47.286Z,0.00
2018-06-24T02:38:47.302Z,0.00
2018-06-24T02:39:47.267Z,0.00
2018-06-24T02:40:47.258Z,0.00
2018-06-24T02:41:47.244Z,0.00
2018-06-24T02:42:47.236Z,0.00
2018-06-24T02:43:47.245Z,0.00
2018-06-24T02:44:47.212Z,0.00
2018-06-24T02:45:47.200Z,0.00
2018-06-24T02:46:47.190Z,0.00
2018-06-24T02:47:47.181Z,0.00
2018-06-24T02:48:47.197Z,0.00
2018-06-24T02:49:47.169Z,4.00
2018-06-24T02:50:47.147Z,4.00
2018-06-24T02:51:47.137Z,4.00
2018-06-24T02:52:47.127Z,0.00
2018-06-24T02:53:47.317Z,0.00
2018-06-24T02:54:47.105Z,4.00
2018-06-24T02:55:47.094Z,4.00
2018-06-24T02:56:47.083Z,4.00
2018-06-24T02:57:47.074Z,4.00
2018-06-24T02:58:47.062Z,4.00
2018-06-24T02:59:47.076Z,4.00
2018-06-24T03:00:47.040Z,8.00
2018-06-24T03:01:47.030Z,8.00
2018-06-24T03:02:47.020Z,4.00
2018-06-24T03:03:47.012Z,8.00
2018-06-24T03:04:47.027Z,8.00
2018-06-24T03:05:46.989Z,8.00
2018-06-24T03:06:46.977Z,8.00
2018-06-24T03:07:46.968Z,8.00
2018-06-24T03:08:46.956Z,12.00
2018-06-24T03:09:46.987Z,16.00
2018-06-24T03:10:46.936Z,20.00
2018-06-24T03:11:46.924Z,24.00
2018-06-24T03:12:46.914Z,28.00
2018-06-24T03:13:46.922Z,32.00
2018-06-24T03:14:46.894Z,40.00
2018-06-24T03:15:46.906Z,44.00
2018-06-24T03:16:46.875Z,48.00
2018-06-24T03:17:46.864Z,56.00
2018-06-24T03:18:46.851Z,64.00
2018-06-24T03:19:46.839Z,64.00
2018-06-24T03:20:46.852Z,72.00
2018-06-24T03:21:46.818Z,80.00
2018-06-24T03:22:46.808Z,88.00
2018-06-24T03:23:46.797Z,96.00
2018-06-24T03:24:46.786Z,104.00
2018-06-24T03:25:46.800Z,108.00
2018-06-24T03:26:46.765Z,116.00
2018-06-24T03:27:46.754Z,128.00
2018-06-24T03:28:46.748Z,132.00
2018-06-24T03:29:46.735Z,144.00
2018-06-24T03:30:46.723Z,152.00
2018-06-24T03:31:46.737Z,156.00
2018-06-24T03:32:46.700Z,164.00
2018-06-24T03:33:46.695Z,172.00
2018-06-24T03:34:46.679Z,180.00
2018-06-24T03:35:46.669Z,184.00
2018-06-24T03:36:46.682Z,196.00
2018-06-24T03:37:46.648Z,204.00
2018-06-24T03:38:46.636Z,212.00
2018-06-24T03:39:46.626Z,216.00
2018-06-24T03:40:46.615Z,220.00
2018-06-24T03:41:46.631Z,228.00
2018-06-24T03:42:46.596Z,232.00
2018-06-24T03:43:46.584Z,236.00
2018-06-24T03:44:46.572Z,236.00
2018-06-24T03:45:46.566Z,244.00
2018-06-24T03:46:46.551Z,248.00
2018-06-24T03:47:46.563Z,256.00
2018-06-24T03:48:46.529Z,260.00
2018-06-24T03:49:46.519Z,268.00
2018-06-24T03:50:46.510Z,272.00
2018-06-24T03:51:46.499Z,280.00
2018-06-24T03:52:46.512Z,288.00
2018-06-24T03:53:46.477Z,296.00
2018-06-24T03:54:46.467Z,304.00
2018-06-24T03:55:46.455Z,308.00
2018-06-24T03:56:46.448Z,316.00
2018-06-24T03:57:46.461Z,328.00
2018-06-24T03:58:46.425Z,336.00
2018-06-24T03:59:46.412Z,344.00
2018-06-24T04:00:46.401Z,356.00
2018-06-24T04:01:46.391Z,372.00
2018-06-24T04:02:46.385Z,384.00
2018-06-24T04:03:46.405Z,396.00
2018-06-24T04:04:46.427Z,404.00
2018-06-24T04:05:46.355Z,408.00
2018-06-24T04:06:46.341Z,408.00
2018-06-24T04:07:46.329Z,412.00
2018-06-24T04:08:46.318Z,420.00
2018-06-24T04:09:46.330Z,436.00
2018-06-24T04:10:46.296Z,460.00
2018-06-24T04:11:46.285Z,488.00
2018-06-24T04:12:46.274Z,516.00
2018-06-24T04:13:46.264Z,548.00
2018-06-24T04:14:46.277Z,568.00
2018-06-24T04:15:46.243Z,588.00
2018-06-24T04:16:46.233Z,608.00
2018-06-24T04:17:46.221Z,620.00
2018-06-24T04:18:46.237Z,636.00
2018-06-24T04:19:46.199Z,656.00
2018-06-24T04:20:46.190Z,684.00
2018-06-24T04:21:46.179Z,740.00
2018-06-24T04:22:46.169Z,800.00
2018-06-24T04:23:46.180Z,836.00
2018-06-24T04:24:46.146Z,868.00
2018-06-24T04:25:46.152Z,880.00
2018-06-24T04:26:46.125Z,888.00
2018-06-24T04:27:46.114Z,908.00
2018-06-24T04:28:46.132Z,936.00
2018-06-24T04:29:46.094Z,980.00
2018-06-24T04:30:46.082Z,1032.00
2018-06-24T04:31:46.072Z,1096.00
2018-06-24T04:32:46.061Z,1160.00
2018-06-24T04:33:46.053Z,1176.00
2018-06-24T04:34:46.066Z,1176.00
2018-06-24T04:35:46.030Z,1208.00
2018-06-24T04:36:46.020Z,1228.00
2018-06-24T04:37:46.008Z,1236.00
2018-06-24T04:38:45.997Z,1284.00
2018-06-24T04:39:46.010Z,1344.00
2018-06-24T04:40:45.978Z,1404.00
2018-06-24T04:41:45.965Z,1392.00
2018-06-24T04:42:45.954Z,1336.00
2018-06-24T04:43:45.945Z,1316.00
2018-06-24T04:44:45.960Z,1300.00
2018-06-24T04:45:45.922Z,1288.00
2018-06-24T04:46:45.914Z,1284.00
2018-06-24T04:47:45.904Z,1292.00
2018-06-24T04:48:45.890Z,1312.00
2018-06-24T04:49:45.882Z,1324.00
2018-06-24T04:50:45.896Z,1336.00
2018-06-24T04:51:45.947Z,1360.00
2018-06-24T04:52:45.847Z,1400.00
2018-06-24T04:53:45.837Z,1452.00
2018-06-24T04:54:45.827Z,1512.00
2018-06-24T04:55:45.852Z,1556.00
2018-06-24T04:56:45.803Z,1556.00
2018-06-24T04:57:45.793Z,1536.00
2018-06-24T04:58:45.782Z,1504.00
2018-06-24T04:59:45.771Z,1476.00
2018-06-24T05:00:45.761Z,1440.00
2018-06-24T05:01:45.773Z,1440.00
2018-06-24T05:02:45.739Z,1436.00
2018-06-24T05:03:45.730Z,1452.00
2018-06-24T05:04:45.717Z,1440.00
2018-06-24T05:05:45.707Z,1396.00
2018-06-24T05:06:45.719Z,1324.00
2018-06-24T05:07:45.685Z,1252.00
2018-06-24T05:08:45.674Z,1176.00
2018-06-24T05:09:45.664Z,1112.00
2018-06-24T05:10:45.653Z,1056.00
2018-06-24T05:11:45.665Z,1020.00
2018-06-24T05:12:45.632Z,996.00
2018-06-24T05:13:45.620Z,992.00
2018-06-24T05:14:45.610Z,1008.00
2018-06-24T05:15:45.598Z,1064.00
2018-06-24T05:16:45.610Z,1152.00
2018-06-24T05:17:45.577Z,1264.00
2018-06-24T05:18:45.570Z,1396.00
2018-06-24T05:19:45.554Z,1544.00
2018-06-24T05:20:45.543Z,1688.00
2018-06-24T05:21:45.537Z,1836.00
2018-06-24T05:22:45.546Z,1984.00
2018-06-24T05:23:45.511Z,2088.00
2018-06-24T05:24:45.503Z,2216.00
2018-06-24T05:25:45.491Z,2356.00
2018-06-24T05:26:45.479Z,2472.00
2018-06-24T05:27:45.511Z,2588.00
2018-06-24T05:28:45.459Z,2640.00
2018-06-24T05:29:45.448Z,2608.00
2018-06-24T05:30:45.434Z,2556.00
2018-06-24T05:31:45.423Z,2504.00
2018-06-24T05:32:45.413Z,2520.00
2018-06-24T05:33:45.428Z,2676.00
2018-06-24T05:34:45.391Z,2884.00
2018-06-24T05:35:45.387Z,3064.00
2018-06-24T05:36:45.375Z,3168.00
2018-06-24T05:37:45.364Z,3216.00
2018-06-24T05:38:45.370Z,3228.00
2018-06-24T05:39:45.337Z,3244.00
2018-06-24T05:40:45.326Z,3228.00
2018-06-24T05:41:45.315Z,3208.00
2018-06-24T05:42:45.307Z,3200.00
2018-06-24T05:43:45.328Z,3268.00
2018-06-24T05:44:45.282Z,3392.00
2018-06-24T05:45:45.274Z,3532.00
2018-06-24T05:46:45.262Z,3628.00
2018-06-24T05:47:45.251Z,3644.00
2018-06-24T05:48:45.248Z,3616.00
2018-06-24T05:49:45.255Z,3544.00
2018-06-24T05:50:45.220Z,3472.00
2018-06-24T05:51:45.208Z,3396.00
2018-06-24T05:52:45.199Z,3364.00
2018-06-24T05:53:45.188Z,3324.00
2018-06-24T05:54:45.201Z,3256.00
2018-06-24T05:55:45.166Z,3212.00
2018-06-24T05:56:45.155Z,3240.00
2018-06-24T05:57:45.144Z,3300.00
2018-06-24T05:58:45.134Z,3420.00
2018-06-24T05:59:45.146Z,3496.00
2018-06-24T06:00:45.117Z,3556.00
2018-06-24T06:01:45.102Z,3620.00
2018-06-24T06:02:45.094Z,3696.00
2018-06-24T06:03:45.080Z,3828.00
2018-06-24T06:04:45.097Z,3944.00
2018-06-24T06:05:45.061Z,4132.00
2018-06-24T06:06:45.050Z,4288.00
2018-06-24T06:07:45.043Z,4384.00
2018-06-24T06:08:45.027Z,4468.00
2018-06-24T06:09:45.016Z,4524.00
2018-06-24T06:10:45.028Z,4628.00
2018-06-24T06:11:45.027Z,4744.00
2018-06-24T06:12:44.982Z,4840.00
2018-06-24T06:13:44.972Z,4924.00
2018-06-24T06:14:44.965Z,4964.00
2018-06-24T06:15:44.973Z,4932.00
2018-06-24T06:16:44.938Z,4892.00
2018-06-24T06:17:44.928Z,4848.00
2018-06-24T06:18:44.917Z,4768.00
2018-06-24T06:19:44.908Z,4600.00
2018-06-24T06:20:44.920Z,4524.00
2018-06-24T06:21:44.933Z,4556.00
2018-06-24T06:22:44.877Z,4540.00
2018-06-24T06:23:44.862Z,4516.00
2018-06-24T06:24:44.852Z,4508.00
2018-06-24T06:25:44.869Z,4408.00
2018-06-24T06:26:44.836Z,4200.00
2018-06-24T06:27:44.820Z,3772.00
2018-06-24T06:28:44.810Z,3804.00
2018-06-24T06:29:44.798Z,3568.00
2018-06-24T06:30:44.787Z,3380.00
2018-06-24T06:31:44.805Z,3344.00
2018-06-24T06:32:44.766Z,3348.00
2018-06-24T06:33:44.755Z,3376.00
2018-06-24T06:34:44.747Z,3476.00
2018-06-24T06:35:44.734Z,3696.00
2018-06-24T06:36:44.773Z,3972.00
2018-06-24T06:37:44.718Z,4144.00
2018-06-24T06:38:44.701Z,4444.00
2018-06-24T06:39:44.691Z,4404.00
2018-06-24T06:40:44.679Z,4200.00
2018-06-24T06:41:44.696Z,4000.00
2018-06-24T06:42:44.660Z,3860.00
2018-06-24T06:43:44.648Z,3784.00
2018-06-24T06:44:44.638Z,3720.00
2018-06-24T06:45:44.868Z,3776.00
2018-06-24T06:46:44.615Z,3928.00
2018-06-24T06:47:44.629Z,4084.00
2018-06-24T06:48:44.593Z,4412.00
2018-06-24T06:49:44.582Z,4652.00
2018-06-24T06:50:44.572Z,4920.00
2018-06-24T06:51:44.561Z,5288.00
2018-06-24T06:52:44.574Z,5572.00
2018-06-24T06:53:44.539Z,5808.00
2018-06-24T06:54:44.529Z,5920.00
2018-06-24T06:55:44.517Z,5652.00
2018-06-24T06:56:44.506Z,5260.00
2018-06-24T06:57:44.525Z,4996.00
2018-06-24T06:58:44.484Z,4972.00
2018-06-24T06:59:44.475Z,4924.00
2018-06-24T07:00:44.464Z,4576.00
2018-06-24T07:01:44.454Z,4336.00
2018-06-24T07:02:44.464Z,4700.00
2018-06-24T07:03:44.430Z,5196.00
2018-06-24T07:04:44.419Z,5532.00
2018-06-24T07:05:44.476Z,5620.00
2018-06-24T07:06:44.401Z,5584.00
2018-06-24T07:07:44.414Z,5568.00
2018-06-24T07:08:44.376Z,5388.00
2018-06-24T07:09:44.368Z,5592.00
2018-06-24T07:10:44.355Z,5580.00
2018-06-24T07:11:44.344Z,5980.00
2018-06-24T07:12:44.333Z,6308.00
2018-06-24T07:13:44.348Z,6720.00
2018-06-24T07:14:44.313Z,6824.00
2018-06-24T07:15:44.308Z,6776.00
2018-06-24T07:16:44.292Z,6556.00
2018-06-24T07:17:44.304Z,6344.00
2018-06-24T07:18:44.304Z,6024.00
2018-06-24T07:19:44.261Z,5648.00
2018-06-24T07:20:44.251Z,5396.00
2018-06-24T07:21:44.242Z,5220.00
2018-06-24T07:22:44.230Z,5212.00
2018-06-24T07:23:44.219Z,5120.00
2018-06-24T07:24:44.234Z,5056.00
2018-06-24T07:25:44.200Z,5140.00
2018-06-24T07:26:44.188Z,5444.00
2018-06-24T07:27:44.184Z,5692.00
2018-06-24T07:28:44.165Z,5808.00
2018-06-24T07:29:44.181Z,5924.00
2018-06-24T07:30:44.145Z,6272.00
2018-06-24T07:31:44.133Z,6472.00
2018-06-24T07:32:44.123Z,6504.00
2018-06-24T07:33:44.228Z,6572.00
2018-06-24T07:34:44.132Z,7008.00
2018-06-24T07:35:44.090Z,7260.00
2018-06-24T07:36:44.079Z,7764.00
2018-06-24T07:37:44.067Z,7792.00
2018-06-24T07:38:44.057Z,7732.00
2018-06-24T07:39:44.045Z,7892.00
2018-06-24T07:40:44.058Z,8056.00
2018-06-24T07:41:44.025Z,8528.00
2018-06-24T07:42:44.012Z,8840.00
2018-06-24T07:43:44.000Z,9072.00
2018-06-24T07:44:43.993Z,9048.00
2018-06-24T07:45:44.003Z,8848.00
2018-06-24T07:46:43.968Z,8660.00
2018-06-24T07:47:43.957Z,8444.00
2018-06-24T07:48:43.946Z,8576.00
2018-06-24T07:49:43.934Z,8536.00
2018-06-24T07:50:43.929Z,8152.00
2018-06-24T07:51:43.938Z,8064.00
2018-06-24T07:52:43.901Z,8188.00
2018-06-24T07:53:43.891Z,8568.00
2018-06-24T07:54:43.880Z,8788.00
2018-06-24T07:55:43.872Z,8804.00
2018-06-24T07:56:43.859Z,8860.00
2018-06-24T07:57:43.878Z,8948.00
2018-06-24T07:58:43.839Z,9176.00
2018-06-24T07:59:43.828Z,9532.00
2018-06-24T08:00:43.817Z,9732.00
2018-06-24T08:01:43.808Z,9552.00
2018-06-24T08:02:43.798Z,9392.00
2018-06-24T08:03:43.809Z,9652.00
2018-06-24T08:04:43.774Z,10228.00
2018-06-24T08:05:43.763Z,10608.00
2018-06-24T08:06:43.754Z,10736.00
2018-06-24T08:07:43.743Z,10672.00
2018-06-24T08:08:43.755Z,10948.00
2018-06-24T08:09:43.722Z,11132.00
2018-06-24T08:10:43.712Z,11024.00
2018-06-24T08:11:43.704Z,10724.00
2018-06-24T08:12:43.691Z,10544.00
2018-06-24T08:13:43.708Z,10712.00
2018-06-24T08:14:43.669Z,10452.00
2018-06-24T08:15:43.658Z,10200.00
2018-06-24T08:16:43.649Z,10272.00
2018-06-24T08:17:43.635Z,10252.00
2018-06-24T08:18:43.698Z,9948.00
2018-06-24T08:19:43.645Z,9800.00
2018-06-24T08:20:43.603Z,10280.00
2018-06-24T08:21:43.594Z,10416.00
2018-06-24T08:22:43.590Z,10108.00
2018-06-24T08:23:43.576Z,9484.00
2018-06-24T08:24:43.588Z,9168.00
2018-06-24T08:25:43.550Z,9484.00
2018-06-24T08:26:43.539Z,9820.00
2018-06-24T08:27:43.530Z,10048.00
2018-06-24T08:28:43.519Z,10720.00
2018-06-24T08:29:43.535Z,11248.00
2018-06-24T08:30:43.497Z,11008.00
2018-06-24T08:31:43.619Z,10024.00
2018-06-24T08:32:43.476Z,8640.00
2018-06-24T08:33:43.465Z,7544.00
2018-06-24T08:34:43.455Z,7052.00
2018-06-24T08:35:43.467Z,6596.00
2018-06-24T08:36:43.432Z,5948.00
2018-06-24T08:37:43.424Z,5420.00
2018-06-24T08:38:43.411Z,4856.00
2018-06-24T08:39:43.401Z,4240.00
2018-06-24T08:40:43.418Z,3888.00
2018-06-24T08:41:43.379Z,4196.00
2018-06-24T08:42:43.370Z,4924.00
2018-06-24T08:43:43.360Z,6028.00
2018-06-24T08:44:43.348Z,7440.00
2018-06-24T08:45:43.366Z,8700.00
2018-06-24T08:46:43.326Z,9540.00
2018-06-24T08:47:43.316Z,10176.00
2018-06-24T08:48:43.306Z,10940.00
2018-06-24T08:49:43.299Z,11624.00
2018-06-24T08:50:43.284Z,11884.00
2018-06-24T08:51:43.298Z,11392.00
2018-06-24T08:52:43.266Z,10968.00
2018-06-24T08:53:43.252Z,10896.00
2018-06-24T08:54:43.247Z,10452.00
2018-06-24T08:55:43.231Z,9948.00
2018-06-24T08:56:43.258Z,9560.00
2018-06-24T08:57:43.209Z,9432.00
2018-06-24T08:58:43.199Z,9888.00
2018-06-24T08:59:43.190Z,10516.00
2018-06-24T09:00:43.253Z,10936.00
2018-06-24T09:01:43.167Z,10816.00
2018-06-24T09:02:43.186Z,10384.00
2018-06-24T09:03:43.145Z,10424.00
2018-06-24T09:04:43.134Z,10152.00
2018-06-24T09:05:43.126Z,10012.00
2018-06-24T09:06:43.122Z,9984.00
2018-06-24T09:07:43.133Z,9944.00
2018-06-24T09:08:43.092Z,9844.00
2018-06-24T09:09:43.081Z,9840.00
2018-06-24T09:10:43.072Z,9796.00
2018-06-24T09:11:43.061Z,9404.00
2018-06-24T09:12:43.088Z,8876.00
2018-06-24T09:13:43.040Z,8628.00
2018-06-24T09:14:43.029Z,8732.00
2018-06-24T09:15:43.072Z,8964.00
2018-06-24T09:16:43.025Z,9164.00
2018-06-24T09:17:42.997Z,9328.00
2018-06-24T09:18:43.011Z,9040.00
2018-06-24T09:19:42.978Z,8824.00
2018-06-24T09:20:42.967Z,9020.00
2018-06-24T09:21:42.959Z,9200.00
2018-06-24T09:22:42.943Z,9588.00
2018-06-24T09:23:42.963Z,10104.00
2018-06-24T09:24:42.921Z,10372.00
2018-06-24T09:25:42.911Z,10360.00
2018-06-24T09:26:42.900Z,9860.00
2018-06-24T09:27:42.941Z,9256.00
2018-06-24T09:28:42.879Z,8280.00
2018-06-24T09:29:42.891Z,7196.00
2018-06-24T09:30:42.919Z,6260.00
2018-06-24T09:31:42.846Z,5768.00
2018-06-24T09:32:42.837Z,5472.00
2018-06-24T09:33:42.825Z,5384.00
2018-06-24T09:34:42.842Z,5564.00
2018-06-24T09:35:42.804Z,5976.00
2018-06-24T09:36:42.796Z,6512.00
2018-06-24T09:37:42.783Z,7336.00
2018-06-24T09:38:42.772Z,7980.00
2018-06-24T09:39:42.761Z,8524.00
2018-06-24T09:40:42.777Z,9472.00
2018-06-24T09:41:42.745Z,10044.00
2018-06-24T09:42:42.729Z,11068.00
2018-06-24T09:43:42.719Z,12228.00
2018-06-24T09:44:42.709Z,13332.00
2018-06-24T09:45:42.732Z,14260.00
2018-06-24T09:46:42.687Z,14684.00
2018-06-24T09:47:42.704Z,14852.00
2018-06-24T09:48:42.667Z,14340.00
2018-06-24T09:49:42.656Z,13156.00
2018-06-24T09:50:42.645Z,12960.00
2018-06-24T09:51:42.656Z,12876.00
2018-06-24T09:52:42.626Z,12788.00
2018-06-24T09:53:42.612Z,12524.00
2018-06-24T09:54:42.605Z,12988.00
2018-06-24T09:55:42.590Z,13704.00
2018-06-24T09:56:42.608Z,14276.00
2018-06-24T09:57:42.569Z,14492.00
2018-06-24T09:58:42.558Z,14592.00
2018-06-24T09:59:42.548Z,14076.00
2018-06-24T10:00:42.538Z,13900.00
2018-06-24T10:01:42.526Z,14504.00
2018-06-24T10:02:42.549Z,15224.00
2018-06-24T10:03:42.508Z,14992.00
2018-06-24T10:04:42.495Z,14976.00
2018-06-24T10:05:42.485Z,15088.00
2018-06-24T10:06:42.474Z,15096.00
2018-06-24T10:07:42.465Z,14868.00
2018-06-24T10:08:42.475Z,14704.00
2018-06-24T10:09:42.444Z,14960.00
2018-06-24T10:10:42.430Z,15400.00
2018-06-24T10:11:42.420Z,16448.00
2018-06-24T10:12:42.410Z,14956.00
2018-06-24T10:13:42.441Z,14276.00
2018-06-24T10:14:42.389Z,14524.00
2018-06-24T10:15:42.379Z,15352.00
2018-06-24T10:16:42.370Z,17120.00
2018-06-24T10:17:42.358Z,18560.00
2018-06-24T10:18:42.399Z,19328.00
2018-06-24T10:19:42.336Z,20352.00
2018-06-24T10:20:42.326Z,20128.00
2018-06-24T10:21:42.315Z,19232.00
2018-06-24T10:22:42.310Z,19456.00
2018-06-24T10:23:42.298Z,19744.00
2018-06-24T10:24:42.324Z,19264.00
2018-06-24T10:25:42.273Z,18496.00
2018-06-24T10:26:42.263Z,19776.00
2018-06-24T10:27:42.254Z,21312.00
2018-06-24T10:28:42.241Z,24224.00
2018-06-24T10:29:42.236Z,26688.00
2018-06-24T10:30:42.244Z,31296.00
2018-06-24T10:31:42.209Z,18176.00
2018-06-24T10:32:42.198Z,28160.00
2018-06-24T10:33:42.189Z,48256.00
2018-06-24T10:34:42.180Z,39936.00
2018-06-24T10:35:42.192Z,20960.00
2018-06-24T10:36:42.157Z,48736.00
2018-06-24T10:37:42.146Z,42400.00
2018-06-24T10:38:42.137Z,20544.00
2018-06-24T10:39:42.125Z,14980.00
2018-06-24T10:40:42.138Z,10064.00
2018-06-24T10:41:42.104Z,9596.00
2018-06-24T10:42:42.096Z,10804.00
2018-06-24T10:43:42.083Z,12764.00
2018-06-24T10:44:42.072Z,52128.00
2018-06-24T10:45:42.088Z,25216.00
2018-06-24T10:46:42.051Z,12616.00
2018-06-24T10:47:42.040Z,13268.00
2018-06-24T10:48:42.030Z,16468.00
2018-06-24T10:49:42.019Z,26240.00
2018-06-24T10:50:42.009Z,19392.00
2018-06-24T10:51:42.030Z,22240.00
2018-06-24T10:52:41.987Z,35584.00
2018-06-24T10:53:41.977Z,35712.00
2018-06-24T10:54:41.966Z,47872.00
2018-06-24T10:55:41.956Z,48320.00
2018-06-24T10:56:41.945Z,17792.00
2018-06-24T10:57:41.960Z,19872.00
2018-06-24T10:58:41.925Z,14592.00
2018-06-24T10:59:41.914Z,15472.00
2018-06-24T11:00:41.906Z,44736.00
2018-06-24T11:01:41.899Z,49152.00
2018-06-24T11:02:41.912Z,66720.00
2018-06-24T11:03:41.875Z,22496.00
2018-06-24T11:04:41.861Z,29728.00
2018-06-24T11:05:41.851Z,15388.00
2018-06-24T11:06:41.840Z,15292.00
2018-06-24T11:07:41.831Z,17216.00
2018-06-24T11:08:41.845Z,18240.00
2018-06-24T11:09:41.818Z,32736.00
2018-06-24T11:10:41.800Z,26272.00
2018-06-24T11:11:41.789Z,46240.00
2018-06-24T11:12:41.781Z,36896.00
2018-06-24T11:13:41.797Z,28672.00
2018-06-24T11:14:41.759Z,27360.00
2018-06-24T11:15:41.748Z,77824.00
2018-06-24T11:16:41.738Z,51808.00
2018-06-24T11:17:41.728Z,43392.00
2018-06-24T11:18:41.718Z,57024.00
2018-06-24T11:19:41.731Z,56096.00
2018-06-24T11:20:41.698Z,40032.00
2018-06-24T11:21:41.690Z,49920.00
2018-06-24T11:22:41.677Z,14676.00
2018-06-24T11:23:41.666Z,14020.00
2018-06-24T11:24:41.694Z,34496.00
2018-06-24T11:25:41.712Z,48256.00
2018-06-24T11:26:41.864Z,54176.00
2018-06-24T11:27:41.637Z,61184.00
2018-06-24T11:28:41.631Z,20416.00
2018-06-24T11:29:41.627Z,22368.00
2018-06-24T11:30:41.662Z,18848.00
2018-06-24T11:31:41.586Z,21856.00
2018-06-24T11:32:41.575Z,65184.00
2018-06-24T11:33:41.565Z,60128.00
2018-06-24T11:34:41.555Z,67584.00
2018-06-24T11:35:41.545Z,26176.00
2018-06-24T11:36:41.562Z,15864.00
2018-06-24T11:37:41.525Z,14576.00
2018-06-24T11:38:41.514Z,13372.00
2018-06-24T11:39:41.504Z,12552.00
2018-06-24T11:40:41.497Z,13076.00
2018-06-24T11:41:41.486Z,15048.00
2018-06-24T11:42:41.497Z,60576.00
2018-06-24T11:43:41.465Z,54624.00
2018-06-24T11:44:41.453Z,58112.00
2018-06-24T11:45:41.443Z,67392.00
2018-06-24T11:46:41.433Z,15308.00
2018-06-24T11:47:41.450Z,11676.00
2018-06-24T11:48:41.413Z,9172.00
2018-06-24T11:49:41.402Z,7476.00
2018-06-24T11:50:41.393Z,5776.00
2018-06-24T11:51:41.383Z,4580.00
2018-06-24T11:52:41.371Z,4044.00
2018-06-24T11:53:41.391Z,3764.00
2018-06-24T11:54:41.350Z,3976.00
2018-06-24T11:55:41.340Z,4808.00
2018-06-24T11:56:41.329Z,5980.00
2018-06-24T11:57:41.319Z,7616.00
2018-06-24T11:58:41.309Z,9592.00
2018-06-24T11:59:41.408Z,12396.00
2018-06-24T12:00:41.287Z,18752.00
2018-06-24T12:01:41.325Z,25056.00
2018-06-24T12:02:41.327Z,74688.00
2018-06-24T12:03:41.257Z,73472.00
2018-06-24T12:04:41.270Z,31552.00
2018-06-24T12:05:41.238Z,29472.00
2018-06-24T12:06:41.226Z,30144.00
2018-06-24T12:07:41.216Z,29312.00
2018-06-24T12:08:41.205Z,28256.00
2018-06-24T12:09:41.245Z,28096.00
2018-06-24T12:10:41.217Z,26144.00
2018-06-24T12:11:41.173Z,22496.00
2018-06-24T12:12:41.165Z,28864.00
2018-06-24T12:13:41.154Z,29440.00
2018-06-24T12:14:41.146Z,28736.00
2018-06-24T12:15:41.168Z,28064.00
2018-06-24T12:16:41.130Z,24448.00
2018-06-24T12:17:41.114Z,20992.00
2018-06-24T12:18:41.105Z,13956.00
2018-06-24T12:19:41.096Z,11292.00
2018-06-24T12:20:41.084Z,10296.00